sensor_id;sensor_type;location;lat;lon;timestamp;P1;durP1;ratioP1;P2;durP2;ratioP2
55718;SDS011;41623;46.104;19.656;2023-03-03T00:02:15;12.93;;;4.28;;
55718;SDS011;41623;46.104;19.656;2023-03-03T00:04:41;5.80;;;3.20;;
55718;SDS011;41623;46.104;19.656;2023-03-03T00:07:07;3.33;;;2.20;;
55718;SDS011;41623;46.104;19.656;2023-03-03T00:09:33;7.10;;;3.05;;
55718;SDS011;41623;46.104;19.656;2023-03-03T00:11:59;4.72;;;2.65;;
55718;SDS011;41623;46.104;19.656;2023-03-03T00:14:27;4.47;;;2.72;;
55718;SDS011;41623;46.104;19.656;2023-03-03T00:16:54;7.53;;;3.60;;
55718;SDS011;41623;46.104;19.656;2023-03-03T00:19:21;7.22;;;3.60;;
55718;SDS011;41623;46.104;19.656;2023-03-03T00:21:50;5.45;;;3.67;;
55718;SDS011;41623;46.104;19.656;2023-03-03T00:26:44;7.90;;;3.78;;
55718;SDS011;41623;46.104;19.656;2023-03-03T00:32:07;7.50;;;4.25;;
55718;SDS011;41623;46.104;19.656;2023-03-03T00:34:37;3.67;;;1.80;;
55718;SDS011;41623;46.104;19.656;2023-03-03T00:37:10;7.10;;;3.33;;
55718;SDS011;41623;46.104;19.656;2023-03-03T00:39:44;8.90;;;4.30;;
55718;SDS011;41623;46.104;19.656;2023-03-03T00:42:14;9.43;;;3.97;;
55718;SDS011;41623;46.104;19.656;2023-03-03T00:44:44;5.35;;;3.55;;
55718;SDS011;41623;46.104;19.656;2023-03-03T00:49:36;6.18;;;3.78;;
55718;SDS011;41623;46.104;19.656;2023-03-03T00:52:13;6.13;;;3.42;;
55718;SDS011;41623;46.104;19.656;2023-03-03T00:54:40;10.57;;;3.95;;
55718;SDS011;41623;46.104;19.656;2023-03-03T00:57:06;8.98;;;5.20;;
55718;SDS011;41623;46.104;19.656;2023-03-03T00:59:32;9.48;;;3.55;;
55718;SDS011;41623;46.104;19.656;2023-03-03T01:01:58;2.90;;;2.10;;
55718;SDS011;41623;46.104;19.656;2023-03-03T01:04:24;3.78;;;2.13;;
55718;SDS011;41623;46.104;19.656;2023-03-03T01:06:50;9.00;;;3.55;;
55718;SDS011;41623;46.104;19.656;2023-03-03T01:09:16;10.25;;;4.80;;
55718;SDS011;41623;46.104;19.656;2023-03-03T01:11:42;5.55;;;3.00;;
55718;SDS011;41623;46.104;19.656;2023-03-03T01:14:08;5.43;;;3.13;;
55718;SDS011;41623;46.104;19.656;2023-03-03T01:16:34;11.45;;;4.63;;
55718;SDS011;41623;46.104;19.656;2023-03-03T01:19:01;7.93;;;4.30;;
55718;SDS011;41623;46.104;19.656;2023-03-03T01:21:27;11.77;;;4.57;;
55718;SDS011;41623;46.104;19.656;2023-03-03T01:23:53;7.07;;;3.65;;
55718;SDS011;41623;46.104;19.656;2023-03-03T01:26:19;8.07;;;3.70;;
55718;SDS011;41623;46.104;19.656;2023-03-03T01:28:45;3.15;;;2.60;;
55718;SDS011;41623;46.104;19.656;2023-03-03T01:31:11;3.88;;;3.08;;
55718;SDS011;41623;46.104;19.656;2023-03-03T01:33:37;6.90;;;3.88;;
55718;SDS011;41623;46.104;19.656;2023-03-03T01:36:03;7.47;;;3.97;;
55718;SDS011;41623;46.104;19.656;2023-03-03T01:38:30;7.85;;;3.83;;
55718;SDS011;41623;46.104;19.656;2023-03-03T01:40:57;11.48;;;5.32;;
55718;SDS011;41623;46.104;19.656;2023-03-03T01:43:27;5.88;;;3.00;;
55718;SDS011;41623;46.104;19.656;2023-03-03T01:48:29;8.32;;;4.88;;
55718;SDS011;41623;46.104;19.656;2023-03-03T01:53:23;8.73;;;2.97;;
55718;SDS011;41623;46.104;19.656;2023-03-03T01:55:51;3.75;;;2.75;;
55718;SDS011;41623;46.104;19.656;2023-03-03T01:58:19;4.78;;;3.00;;
55718;SDS011;41623;46.104;19.656;2023-03-03T02:00:48;9.68;;;3.75;;
55718;SDS011;41623;46.104;19.656;2023-03-03T02:03:15;6.47;;;3.55;;
55718;SDS011;41623;46.104;19.656;2023-03-03T02:05:42;5.88;;;3.70;;
55718;SDS011;41623;46.104;19.656;2023-03-03T02:08:08;7.38;;;4.22;;
55718;SDS011;41623;46.104;19.656;2023-03-03T02:10:36;6.45;;;3.22;;
55718;SDS011;41623;46.104;19.656;2023-03-03T02:13:02;7.53;;;3.42;;
55718;SDS011;41623;46.104;19.656;2023-03-03T02:15:29;8.43;;;4.07;;
55718;SDS011;41623;46.104;19.656;2023-03-03T02:17:57;9.10;;;4.03;;
55718;SDS011;41623;46.104;19.656;2023-03-03T02:22:51;7.53;;;4.00;;
55718;SDS011;41623;46.104;19.656;2023-03-03T02:25:23;6.63;;;3.80;;
55718;SDS011;41623;46.104;19.656;2023-03-03T02:27:51;10.02;;;3.67;;
55718;SDS011;41623;46.104;19.656;2023-03-03T02:30:19;6.53;;;4.07;;
55718;SDS011;41623;46.104;19.656;2023-03-03T02:32:45;6.63;;;3.42;;
55718;SDS011;41623;46.104;19.656;2023-03-03T02:35:30;5.97;;;3.42;;
55718;SDS011;41623;46.104;19.656;2023-03-03T02:37:58;3.72;;;3.13;;
55718;SDS011;41623;46.104;19.656;2023-03-03T02:40:27;6.03;;;3.00;;
55718;SDS011;41623;46.104;19.656;2023-03-03T02:42:56;4.97;;;3.60;;
55718;SDS011;41623;46.104;19.656;2023-03-03T02:45:23;4.18;;;3.63;;
55718;SDS011;41623;46.104;19.656;2023-03-03T02:47:49;2.67;;;2.45;;
55718;SDS011;41623;46.104;19.656;2023-03-03T02:50:15;4.28;;;2.78;;
55718;SDS011;41623;46.104;19.656;2023-03-03T02:52:41;9.05;;;3.80;;
55718;SDS011;41623;46.104;19.656;2023-03-03T02:55:07;11.30;;;3.80;;
55718;SDS011;41623;46.104;19.656;2023-03-03T02:57:34;7.10;;;3.45;;
55718;SDS011;41623;46.104;19.656;2023-03-03T03:00:00;6.53;;;3.17;;
55718;SDS011;41623;46.104;19.656;2023-03-03T03:02:26;6.03;;;3.55;;
55718;SDS011;41623;46.104;19.656;2023-03-03T03:04:52;5.50;;;3.70;;
55718;SDS011;41623;46.104;19.656;2023-03-03T03:07:18;6.10;;;3.63;;
55718;SDS011;41623;46.104;19.656;2023-03-03T03:09:44;8.00;;;3.88;;
55718;SDS011;41623;46.104;19.656;2023-03-03T03:12:10;5.03;;;3.47;;
55718;SDS011;41623;46.104;19.656;2023-03-03T03:14:36;4.63;;;3.10;;
55718;SDS011;41623;46.104;19.656;2023-03-03T03:17:02;6.68;;;3.90;;
55718;SDS011;41623;46.104;19.656;2023-03-03T03:19:28;11.85;;;4.30;;
55718;SDS011;41623;46.104;19.656;2023-03-03T03:21:55;12.32;;;5.50;;
55718;SDS011;41623;46.104;19.656;2023-03-03T03:24:21;7.07;;;4.15;;
55718;SDS011;41623;46.104;19.656;2023-03-03T03:26:47;7.28;;;3.58;;
55718;SDS011;41623;46.104;19.656;2023-03-03T03:29:13;7.78;;;4.18;;
55718;SDS011;41623;46.104;19.656;2023-03-03T03:31:39;7.25;;;4.05;;
55718;SDS011;41623;46.104;19.656;2023-03-03T03:34:07;5.45;;;4.15;;
55718;SDS011;41623;46.104;19.656;2023-03-03T03:36:33;12.10;;;4.70;;
55718;SDS011;41623;46.104;19.656;2023-03-03T03:38:59;4.40;;;2.92;;
55718;SDS011;41623;46.104;19.656;2023-03-03T03:41:26;5.25;;;2.80;;
55718;SDS011;41623;46.104;19.656;2023-03-03T03:43:52;7.78;;;3.58;;
55718;SDS011;41623;46.104;19.656;2023-03-03T03:46:18;9.38;;;4.00;;
55718;SDS011;41623;46.104;19.656;2023-03-03T03:48:44;14.45;;;3.78;;
55718;SDS011;41623;46.104;19.656;2023-03-03T03:51:11;12.82;;;4.00;;
55718;SDS011;41623;46.104;19.656;2023-03-03T03:53:37;4.38;;;2.53;;
55718;SDS011;41623;46.104;19.656;2023-03-03T03:56:03;9.32;;;4.13;;
55718;SDS011;41623;46.104;19.656;2023-03-03T03:58:29;5.65;;;3.85;;
55718;SDS011;41623;46.104;19.656;2023-03-03T04:01:00;5.40;;;3.90;;
55718;SDS011;41623;46.104;19.656;2023-03-03T04:03:26;3.60;;;2.83;;
55718;SDS011;41623;46.104;19.656;2023-03-03T04:05:52;3.35;;;2.33;;
55718;SDS011;41623;46.104;19.656;2023-03-03T04:08:19;6.30;;;2.70;;
55718;SDS011;41623;46.104;19.656;2023-03-03T04:10:45;6.13;;;3.47;;
55718;SDS011;41623;46.104;19.656;2023-03-03T04:13:11;4.53;;;2.75;;
55718;SDS011;41623;46.104;19.656;2023-03-03T04:15:37;5.30;;;3.00;;
55718;SDS011;41623;46.104;19.656;2023-03-03T04:18:03;8.95;;;3.50;;
55718;SDS011;41623;46.104;19.656;2023-03-03T04:20:29;10.60;;;3.85;;
55718;SDS011;41623;46.104;19.656;2023-03-03T04:22:55;3.55;;;2.97;;
55718;SDS011;41623;46.104;19.656;2023-03-03T04:25:21;3.47;;;2.88;;
55718;SDS011;41623;46.104;19.656;2023-03-03T04:27:48;6.53;;;3.50;;
55718;SDS011;41623;46.104;19.656;2023-03-03T04:30:16;5.47;;;3.83;;
55718;SDS011;41623;46.104;19.656;2023-03-03T04:32:42;8.40;;;4.60;;
55718;SDS011;41623;46.104;19.656;2023-03-03T04:35:08;5.60;;;3.92;;
55718;SDS011;41623;46.104;19.656;2023-03-03T04:37:34;5.25;;;3.58;;
55718;SDS011;41623;46.104;19.656;2023-03-03T04:40:02;3.85;;;2.72;;
55718;SDS011;41623;46.104;19.656;2023-03-03T04:42:28;8.55;;;3.28;;
55718;SDS011;41623;46.104;19.656;2023-03-03T04:44:54;10.25;;;3.67;;
55718;SDS011;41623;46.104;19.656;2023-03-03T04:47:20;9.25;;;3.92;;
55718;SDS011;41623;46.104;19.656;2023-03-03T04:49:46;5.55;;;2.90;;
55718;SDS011;41623;46.104;19.656;2023-03-03T04:52:12;4.13;;;3.05;;
55718;SDS011;41623;46.104;19.656;2023-03-03T04:54:38;7.88;;;3.90;;
55718;SDS011;41623;46.104;19.656;2023-03-03T04:57:04;2.85;;;2.50;;
55718;SDS011;41623;46.104;19.656;2023-03-03T04:59:31;3.50;;;1.95;;
55718;SDS011;41623;46.104;19.656;2023-03-03T05:01:57;2.85;;;1.92;;
55718;SDS011;41623;46.104;19.656;2023-03-03T05:04:23;6.35;;;3.40;;
55718;SDS011;41623;46.104;19.656;2023-03-03T05:06:49;5.68;;;3.50;;
55718;SDS011;41623;46.104;19.656;2023-03-03T05:09:16;5.15;;;3.25;;
55718;SDS011;41623;46.104;19.656;2023-03-03T05:11:42;5.53;;;3.25;;
55718;SDS011;41623;46.104;19.656;2023-03-03T05:14:08;9.02;;;3.83;;
55718;SDS011;41623;46.104;19.656;2023-03-03T05:16:34;7.32;;;3.90;;
55718;SDS011;41623;46.104;19.656;2023-03-03T05:19:00;4.72;;;3.40;;
55718;SDS011;41623;46.104;19.656;2023-03-03T05:21:26;4.63;;;2.88;;
55718;SDS011;41623;46.104;19.656;2023-03-03T05:23:52;10.43;;;4.03;;
55718;SDS011;41623;46.104;19.656;2023-03-03T05:26:18;7.63;;;4.10;;
55718;SDS011;41623;46.104;19.656;2023-03-03T05:28:44;10.35;;;4.55;;
55718;SDS011;41623;46.104;19.656;2023-03-03T05:31:10;14.95;;;3.67;;
55718;SDS011;41623;46.104;19.656;2023-03-03T05:33:36;11.55;;;4.55;;
55718;SDS011;41623;46.104;19.656;2023-03-03T05:36:02;4.75;;;3.50;;
55718;SDS011;41623;46.104;19.656;2023-03-03T05:38:28;5.50;;;3.47;;
55718;SDS011;41623;46.104;19.656;2023-03-03T05:40:54;6.47;;;4.28;;
55718;SDS011;41623;46.104;19.656;2023-03-03T05:43:20;10.13;;;4.60;;
55718;SDS011;41623;46.104;19.656;2023-03-03T05:45:46;4.00;;;3.63;;
55718;SDS011;41623;46.104;19.656;2023-03-03T05:48:12;9.68;;;5.70;;
55718;SDS011;41623;46.104;19.656;2023-03-03T05:50:38;9.27;;;5.05;;
55718;SDS011;41623;46.104;19.656;2023-03-03T05:53:04;8.85;;;4.50;;
55718;SDS011;41623;46.104;19.656;2023-03-03T05:55:30;6.78;;;4.30;;
55718;SDS011;41623;46.104;19.656;2023-03-03T05:57:56;12.45;;;5.00;;
55718;SDS011;41623;46.104;19.656;2023-03-03T06:00:22;9.02;;;4.80;;
55718;SDS011;41623;46.104;19.656;2023-03-03T06:02:48;10.95;;;4.65;;
55718;SDS011;41623;46.104;19.656;2023-03-03T06:05:14;13.45;;;4.40;;
55718;SDS011;41623;46.104;19.656;2023-03-03T06:07:41;10.10;;;5.35;;
55718;SDS011;41623;46.104;19.656;2023-03-03T06:10:07;13.35;;;4.95;;
55718;SDS011;41623;46.104;19.656;2023-03-03T06:12:33;6.13;;;4.35;;
55718;SDS011;41623;46.104;19.656;2023-03-03T06:15:00;9.63;;;3.60;;
55718;SDS011;41623;46.104;19.656;2023-03-03T06:17:26;13.55;;;5.20;;
55718;SDS011;41623;46.104;19.656;2023-03-03T06:19:52;9.02;;;5.18;;
55718;SDS011;41623;46.104;19.656;2023-03-03T06:22:18;6.38;;;4.50;;
55718;SDS011;41623;46.104;19.656;2023-03-03T06:24:44;8.98;;;5.00;;
55718;SDS011;41623;46.104;19.656;2023-03-03T06:27:10;8.70;;;5.30;;
55718;SDS011;41623;46.104;19.656;2023-03-03T06:29:36;10.93;;;5.28;;
55718;SDS011;41623;46.104;19.656;2023-03-03T06:32:02;10.10;;;4.57;;
55718;SDS011;41623;46.104;19.656;2023-03-03T06:34:28;15.45;;;3.97;;
55718;SDS011;41623;46.104;19.656;2023-03-03T06:36:54;8.32;;;4.85;;
55718;SDS011;41623;46.104;19.656;2023-03-03T06:39:21;6.43;;;4.15;;
55718;SDS011;41623;46.104;19.656;2023-03-03T06:41:47;14.77;;;5.13;;
55718;SDS011;41623;46.104;19.656;2023-03-03T06:44:13;3.63;;;3.15;;
55718;SDS011;41623;46.104;19.656;2023-03-03T06:46:39;6.25;;;2.42;;
55718;SDS011;41623;46.104;19.656;2023-03-03T06:49:05;3.53;;;2.30;;
55718;SDS011;41623;46.104;19.656;2023-03-03T06:51:32;8.65;;;3.50;;
55718;SDS011;41623;46.104;19.656;2023-03-03T06:54:00;11.30;;;3.42;;
55718;SDS011;41623;46.104;19.656;2023-03-03T06:56:27;9.32;;;4.43;;
55718;SDS011;41623;46.104;19.656;2023-03-03T06:58:54;10.65;;;3.25;;
55718;SDS011;41623;46.104;19.656;2023-03-03T07:01:21;3.97;;;3.25;;
55718;SDS011;41623;46.104;19.656;2023-03-03T07:03:47;3.25;;;2.63;;
55718;SDS011;41623;46.104;19.656;2023-03-03T07:08:46;9.60;;;3.72;;
55718;SDS011;41623;46.104;19.656;2023-03-03T07:11:14;9.65;;;7.00;;
55718;SDS011;41623;46.104;19.656;2023-03-03T07:13:43;10.18;;;5.78;;
55718;SDS011;41623;46.104;19.656;2023-03-03T07:16:11;15.80;;;5.18;;
55718;SDS011;41623;46.104;19.656;2023-03-03T07:18:42;10.02;;;5.35;;
55718;SDS011;41623;46.104;19.656;2023-03-03T07:23:39;9.77;;;4.72;;
55718;SDS011;41623;46.104;19.656;2023-03-03T07:26:13;14.63;;;5.97;;
55718;SDS011;41623;46.104;19.656;2023-03-03T07:28:43;9.77;;;5.40;;
55718;SDS011;41623;46.104;19.656;2023-03-03T07:31:55;10.40;;;5.07;;
55718;SDS011;41623;46.104;19.656;2023-03-03T07:33:56;10.65;;;4.50;;
55718;SDS011;41623;46.104;19.656;2023-03-03T07:36:28;8.68;;;5.95;;
55718;SDS011;41623;46.104;19.656;2023-03-03T07:39:13;11.65;;;6.13;;
55718;SDS011;41623;46.104;19.656;2023-03-03T07:41:40;8.95;;;4.60;;
55718;SDS011;41623;46.104;19.656;2023-03-03T07:44:18;11.68;;;6.07;;
55718;SDS011;41623;46.104;19.656;2023-03-03T07:46:46;11.05;;;6.47;;
55718;SDS011;41623;46.104;19.656;2023-03-03T07:49:23;15.80;;;5.60;;
55718;SDS011;41623;46.104;19.656;2023-03-03T07:51:53;8.40;;;4.35;;
55718;SDS011;41623;46.104;19.656;2023-03-03T07:57:06;9.77;;;4.47;;
55718;SDS011;41623;46.104;19.656;2023-03-03T07:59:37;10.32;;;4.78;;
55718;SDS011;41623;46.104;19.656;2023-03-03T08:02:08;12.70;;;5.88;;
55718;SDS011;41623;46.104;19.656;2023-03-03T08:04:43;10.80;;;5.15;;
55718;SDS011;41623;46.104;19.656;2023-03-03T08:07:18;16.48;;;6.20;;
55718;SDS011;41623;46.104;19.656;2023-03-03T08:09:46;10.93;;;6.80;;
55718;SDS011;41623;46.104;19.656;2023-03-03T08:12:21;16.10;;;8.27;;
55718;SDS011;41623;46.104;19.656;2023-03-03T08:14:50;19.40;;;8.18;;
55718;SDS011;41623;46.104;19.656;2023-03-03T08:17:21;18.63;;;7.60;;
55718;SDS011;41623;46.104;19.656;2023-03-03T08:19:48;13.80;;;5.97;;
55718;SDS011;41623;46.104;19.656;2023-03-03T08:22:15;12.25;;;6.85;;
55718;SDS011;41623;46.104;19.656;2023-03-03T08:24:42;11.90;;;6.30;;
55718;SDS011;41623;46.104;19.656;2023-03-03T08:27:08;10.55;;;6.65;;
55718;SDS011;41623;46.104;19.656;2023-03-03T08:29:34;15.48;;;7.32;;
55718;SDS011;41623;46.104;19.656;2023-03-03T08:32:00;31.20;;;10.77;;
55718;SDS011;41623;46.104;19.656;2023-03-03T08:34:26;14.77;;;7.90;;
55718;SDS011;41623;46.104;19.656;2023-03-03T08:36:52;21.00;;;6.13;;
55718;SDS011;41623;46.104;19.656;2023-03-03T08:39:21;16.63;;;7.97;;
55718;SDS011;41623;46.104;19.656;2023-03-03T08:41:47;9.90;;;7.35;;
55718;SDS011;41623;46.104;19.656;2023-03-03T08:44:13;13.43;;;6.68;;
55718;SDS011;41623;46.104;19.656;2023-03-03T08:46:42;17.95;;;7.97;;
55718;SDS011;41623;46.104;19.656;2023-03-03T08:49:08;9.20;;;6.20;;
55718;SDS011;41623;46.104;19.656;2023-03-03T08:51:34;16.85;;;7.47;;
55718;SDS011;41623;46.104;19.656;2023-03-03T08:54:00;11.05;;;6.18;;
55718;SDS011;41623;46.104;19.656;2023-03-03T08:56:26;5.68;;;4.07;;
55718;SDS011;41623;46.104;19.656;2023-03-03T08:58:52;13.48;;;6.60;;
55718;SDS011;41623;46.104;19.656;2023-03-03T09:01:18;20.17;;;8.70;;
55718;SDS011;41623;46.104;19.656;2023-03-03T09:03:44;16.70;;;7.57;;
55718;SDS011;41623;46.104;19.656;2023-03-03T09:06:10;21.30;;;8.90;;
55718;SDS011;41623;46.104;19.656;2023-03-03T09:08:37;12.15;;;6.57;;
55718;SDS011;41623;46.104;19.656;2023-03-03T09:11:12;14.60;;;7.03;;
55718;SDS011;41623;46.104;19.656;2023-03-03T09:13:38;11.02;;;6.32;;
55718;SDS011;41623;46.104;19.656;2023-03-03T09:16:12;13.80;;;6.82;;
55718;SDS011;41623;46.104;19.656;2023-03-03T09:18:39;11.07;;;5.93;;
55718;SDS011;41623;46.104;19.656;2023-03-03T09:21:21;14.20;;;7.60;;
55718;SDS011;41623;46.104;19.656;2023-03-03T09:23:57;18.17;;;9.10;;
55718;SDS011;41623;46.104;19.656;2023-03-03T09:31:23;13.18;;;6.85;;
55718;SDS011;41623;46.104;19.656;2023-03-03T09:33:50;14.15;;;7.95;;
55718;SDS011;41623;46.104;19.656;2023-03-03T09:38:48;10.68;;;5.82;;
55718;SDS011;41623;46.104;19.656;2023-03-03T09:46:44;12.57;;;5.13;;
55718;SDS011;41623;46.104;19.656;2023-03-03T09:52:02;9.25;;;4.90;;
55718;SDS011;41623;46.104;19.656;2023-03-03T09:54:46;19.27;;;7.07;;
55718;SDS011;41623;46.104;19.656;2023-03-03T09:57:17;5.10;;;4.18;;
55718;SDS011;41623;46.104;19.656;2023-03-03T10:02:45;9.93;;;5.72;;
55718;SDS011;41623;46.104;19.656;2023-03-03T10:05:20;11.50;;;5.43;;
55718;SDS011;41623;46.104;19.656;2023-03-03T10:10:49;13.13;;;3.58;;
55718;SDS011;41623;46.104;19.656;2023-03-03T10:15:57;10.45;;;4.68;;
55718;SDS011;41623;46.104;19.656;2023-03-03T10:28:46;12.57;;;5.47;;
55718;SDS011;41623;46.104;19.656;2023-03-03T10:39:12;8.52;;;5.28;;
55718;SDS011;41623;46.104;19.656;2023-03-03T10:41:42;10.98;;;4.40;;
55718;SDS011;41623;46.104;19.656;2023-03-03T11:05:42;16.30;;;5.45;;
55718;SDS011;41623;46.104;19.656;2023-03-03T11:08:10;11.07;;;4.68;;
55718;SDS011;41623;46.104;19.656;2023-03-03T11:10:51;9.80;;;5.35;;
55718;SDS011;41623;46.104;19.656;2023-03-03T11:16:34;11.13;;;5.50;;
55718;SDS011;41623;46.104;19.656;2023-03-03T11:18:53;12.30;;;5.13;;
55718;SDS011;41623;46.104;19.656;2023-03-03T11:21:28;7.60;;;5.22;;
55718;SDS011;41623;46.104;19.656;2023-03-03T11:23:59;12.07;;;3.65;;
55718;SDS011;41623;46.104;19.656;2023-03-03T11:31:40;9.88;;;4.13;;
55718;SDS011;41623;46.104;19.656;2023-03-03T11:36:44;8.07;;;3.42;;
55718;SDS011;41623;46.104;19.656;2023-03-03T11:39:22;9.00;;;3.90;;
55718;SDS011;41623;46.104;19.656;2023-03-03T11:41:57;7.55;;;4.20;;
55718;SDS011;41623;46.104;19.656;2023-03-03T11:47:02;15.57;;;5.50;;
55718;SDS011;41623;46.104;19.656;2023-03-03T11:49:40;7.93;;;4.30;;
55718;SDS011;41623;46.104;19.656;2023-03-03T11:57:31;9.73;;;4.63;;
55718;SDS011;41623;46.104;19.656;2023-03-03T12:05:10;7.95;;;4.53;;
55718;SDS011;41623;46.104;19.656;2023-03-03T12:10:18;10.32;;;5.95;;
55718;SDS011;41623;46.104;19.656;2023-03-03T12:13:10;4.63;;;2.78;;
55718;SDS011;41623;46.104;19.656;2023-03-03T12:20:28;6.38;;;4.63;;
55718;SDS011;41623;46.104;19.656;2023-03-03T12:25:35;10.90;;;4.95;;
55718;SDS011;41623;46.104;19.656;2023-03-03T12:41:09;16.48;;;5.32;;
55718;SDS011;41623;46.104;19.656;2023-03-03T12:43:54;9.25;;;5.03;;
55718;SDS011;41623;46.104;19.656;2023-03-03T12:48:48;5.22;;;2.60;;
55718;SDS011;41623;46.104;19.656;2023-03-03T13:04:36;5.70;;;3.88;;
55718;SDS011;41623;46.104;19.656;2023-03-03T13:07:09;9.13;;;3.90;;
55718;SDS011;41623;46.104;19.656;2023-03-03T13:09:41;6.88;;;4.30;;
55718;SDS011;41623;46.104;19.656;2023-03-03T13:14:52;8.80;;;5.55;;
55718;SDS011;41623;46.104;19.656;2023-03-03T13:17:34;7.30;;;4.60;;
55718;SDS011;41623;46.104;19.656;2023-03-03T13:23:25;7.18;;;2.90;;
55718;SDS011;41623;46.104;19.656;2023-03-03T13:27:59;12.77;;;7.35;;
55718;SDS011;41623;46.104;19.656;2023-03-03T13:30:30;10.50;;;4.80;;
55718;SDS011;41623;46.104;19.656;2023-03-03T13:33:20;12.02;;;4.30;;
55718;SDS011;41623;46.104;19.656;2023-03-03T13:35:52;8.75;;;3.47;;
55718;SDS011;41623;46.104;19.656;2023-03-03T13:38:35;10.45;;;5.10;;
55718;SDS011;41623;46.104;19.656;2023-03-03T13:41:08;6.82;;;3.30;;
55718;SDS011;41623;46.104;19.656;2023-03-03T13:43:46;7.33;;;2.40;;
55718;SDS011;41623;46.104;19.656;2023-03-03T13:46:22;7.68;;;3.15;;
55718;SDS011;41623;46.104;19.656;2023-03-03T13:59:09;10.93;;;4.60;;
55718;SDS011;41623;46.104;19.656;2023-03-03T14:06:54;6.20;;;3.95;;
55718;SDS011;41623;46.104;19.656;2023-03-03T14:09:33;15.00;;;5.75;;
55718;SDS011;41623;46.104;19.656;2023-03-03T14:12:10;12.43;;;6.88;;
55718;SDS011;41623;46.104;19.656;2023-03-03T14:17:11;14.63;;;3.70;;
55718;SDS011;41623;46.104;19.656;2023-03-03T14:19:43;14.85;;;4.07;;
55718;SDS011;41623;46.104;19.656;2023-03-03T14:22:19;8.48;;;4.97;;
55718;SDS011;41623;46.104;19.656;2023-03-03T14:35:32;7.03;;;3.08;;
55718;SDS011;41623;46.104;19.656;2023-03-03T14:38:02;14.60;;;5.78;;
55718;SDS011;41623;46.104;19.656;2023-03-03T14:40:31;10.57;;;5.15;;
55718;SDS011;41623;46.104;19.656;2023-03-03T14:42:59;14.13;;;4.80;;
55718;SDS011;41623;46.104;19.656;2023-03-03T14:45:41;10.90;;;5.55;;
55718;SDS011;41623;46.104;19.656;2023-03-03T14:48:20;16.50;;;4.32;;
55718;SDS011;41623;46.104;19.656;2023-03-03T14:50:59;8.82;;;5.47;;
55718;SDS011;41623;46.104;19.656;2023-03-03T14:53:43;6.30;;;4.45;;
55718;SDS011;41623;46.104;19.656;2023-03-03T14:56:24;7.90;;;5.22;;
55718;SDS011;41623;46.104;19.656;2023-03-03T14:59:35;6.97;;;3.95;;
55718;SDS011;41623;46.104;19.656;2023-03-03T15:01:37;16.33;;;4.35;;
55718;SDS011;41623;46.104;19.656;2023-03-03T15:04:04;13.68;;;4.15;;
55718;SDS011;41623;46.104;19.656;2023-03-03T15:07:03;8.90;;;5.30;;
55718;SDS011;41623;46.104;19.656;2023-03-03T15:09:24;5.45;;;3.97;;
55718;SDS011;41623;46.104;19.656;2023-03-03T15:11:54;11.50;;;5.43;;
55718;SDS011;41623;46.104;19.656;2023-03-03T15:14:41;4.28;;;3.17;;
55718;SDS011;41623;46.104;19.656;2023-03-03T15:17:15;11.13;;;5.85;;
55718;SDS011;41623;46.104;19.656;2023-03-03T15:27:05;12.98;;;5.43;;
55718;SDS011;41623;46.104;19.656;2023-03-03T15:29:37;6.72;;;3.30;;
55718;SDS011;41623;46.104;19.656;2023-03-03T15:40:16;10.32;;;5.50;;
55718;SDS011;41623;46.104;19.656;2023-03-03T15:42:48;12.13;;;6.78;;
55718;SDS011;41623;46.104;19.656;2023-03-03T15:47:48;19.45;;;7.20;;
55718;SDS011;41623;46.104;19.656;2023-03-03T15:50:34;16.05;;;6.28;;
55718;SDS011;41623;46.104;19.656;2023-03-03T15:55:31;25.40;;;8.70;;
55718;SDS011;41623;46.104;19.656;2023-03-03T16:03:04;12.68;;;6.47;;
55718;SDS011;41623;46.104;19.656;2023-03-03T16:05:34;7.88;;;4.82;;
55718;SDS011;41623;46.104;19.656;2023-03-03T16:08:09;11.35;;;5.10;;
55718;SDS011;41623;46.104;19.656;2023-03-03T16:13:19;18.90;;;7.45;;
55718;SDS011;41623;46.104;19.656;2023-03-03T16:15:47;15.45;;;8.05;;
55718;SDS011;41623;46.104;19.656;2023-03-03T16:18:25;25.88;;;8.88;;
55718;SDS011;41623;46.104;19.656;2023-03-03T16:26:06;14.82;;;6.75;;
55718;SDS011;41623;46.104;19.656;2023-03-03T16:31:18;13.73;;;7.40;;
55718;SDS011;41623;46.104;19.656;2023-03-03T16:33:51;17.60;;;8.30;;
55718;SDS011;41623;46.104;19.656;2023-03-03T16:39:07;18.10;;;8.95;;
55718;SDS011;41623;46.104;19.656;2023-03-03T16:46:49;20.48;;;8.98;;
55718;SDS011;41623;46.104;19.656;2023-03-03T16:49:19;12.35;;;6.97;;
55718;SDS011;41623;46.104;19.656;2023-03-03T16:56:42;44.53;;;16.20;;
55718;SDS011;41623;46.104;19.656;2023-03-03T16:59:27;35.13;;;13.63;;
55718;SDS011;41623;46.104;19.656;2023-03-03T17:04:33;28.88;;;11.52;;
55718;SDS011;41623;46.104;19.656;2023-03-03T17:07:02;25.88;;;9.68;;
55718;SDS011;41623;46.104;19.656;2023-03-03T17:19:59;23.70;;;10.88;;
55718;SDS011;41623;46.104;19.656;2023-03-03T17:22:46;21.25;;;9.23;;
55718;SDS011;41623;46.104;19.656;2023-03-03T17:30:13;21.50;;;9.85;;
55718;SDS011;41623;46.104;19.656;2023-03-03T17:32:48;27.38;;;12.38;;
55718;SDS011;41623;46.104;19.656;2023-03-03T17:37:50;18.92;;;8.50;;
55718;SDS011;41623;46.104;19.656;2023-03-03T17:43:09;21.85;;;7.97;;
55718;SDS011;41623;46.104;19.656;2023-03-03T17:45:38;23.73;;;10.55;;
55718;SDS011;41623;46.104;19.656;2023-03-03T17:48:15;14.80;;;7.82;;
55718;SDS011;41623;46.104;19.656;2023-03-03T17:53:25;15.57;;;7.35;;
55718;SDS011;41623;46.104;19.656;2023-03-03T18:04:02;12.10;;;6.82;;
55718;SDS011;41623;46.104;19.656;2023-03-03T18:12:25;16.45;;;8.82;;
55718;SDS011;41623;46.104;19.656;2023-03-03T18:22:49;14.63;;;8.10;;
55718;SDS011;41623;46.104;19.656;2023-03-03T18:27:44;17.48;;;7.20;;
55718;SDS011;41623;46.104;19.656;2023-03-03T18:37:54;23.48;;;9.13;;
55718;SDS011;41623;46.104;19.656;2023-03-03T18:42:49;27.67;;;9.27;;
55718;SDS011;41623;46.104;19.656;2023-03-03T19:00:49;8.98;;;6.30;;
55718;SDS011;41623;46.104;19.656;2023-03-03T19:06:10;14.15;;;6.82;;
55718;SDS011;41623;46.104;19.656;2023-03-03T19:08:54;15.32;;;5.90;;
55718;SDS011;41623;46.104;19.656;2023-03-03T19:16:51;12.60;;;7.47;;
55718;SDS011;41623;46.104;19.656;2023-03-03T19:19:19;18.23;;;9.05;;
55718;SDS011;41623;46.104;19.656;2023-03-03T19:21:47;16.75;;;8.23;;
55718;SDS011;41623;46.104;19.656;2023-03-03T19:24:31;18.35;;;7.63;;
55718;SDS011;41623;46.104;19.656;2023-03-03T19:50:21;24.35;;;13.18;;
55718;SDS011;41623;46.104;19.656;2023-03-03T19:55:31;38.63;;;20.73;;
55718;SDS011;41623;46.104;19.656;2023-03-03T20:03:22;11.57;;;7.63;;
55718;SDS011;41623;46.104;19.656;2023-03-03T20:13:48;13.85;;;5.07;;
55718;SDS011;41623;46.104;19.656;2023-03-03T20:16:38;19.50;;;6.90;;
55718;SDS011;41623;46.104;19.656;2023-03-03T20:19:27;13.13;;;5.80;;
55718;SDS011;41623;46.104;19.656;2023-03-03T20:22:06;14.18;;;5.88;;
55718;SDS011;41623;46.104;19.656;2023-03-03T20:27:19;8.57;;;4.53;;
55718;SDS011;41623;46.104;19.656;2023-03-03T20:42:36;10.07;;;5.90;;
55718;SDS011;41623;46.104;19.656;2023-03-03T20:50:10;17.00;;;7.00;;
55718;SDS011;41623;46.104;19.656;2023-03-03T20:55:50;15.95;;;5.93;;
55718;SDS011;41623;46.104;19.656;2023-03-03T20:58:26;6.75;;;4.50;;
55718;SDS011;41623;46.104;19.656;2023-03-03T21:00:58;10.82;;;6.63;;
55718;SDS011;41623;46.104;19.656;2023-03-03T21:03:35;13.30;;;5.72;;
55718;SDS011;41623;46.104;19.656;2023-03-03T21:06:08;10.65;;;5.38;;